Roscommon, Ireland
Current Conditions -  °F | °C
As of 6:00 PM on Monday 24 Nov 2014 (Local Time) from EIKN Reporting Station
Broken Clouds Broken Clouds  
Wind Chill: 42°   Ceiling: 3900
Heat Index: 45°   Visibility: 6mi
Dew Point: 43°   Wind: 5mph
Humidity: 93%   Direction: 290°WNW
Pressure: 30.24"   Gusts: NA
Location:  53.64°N, 8.2°W
Report Text: EIKN 241800Z 29004KT 9999 SCT025 BKN039 07/06 Q1024 NOSIG
Loading
Personal Weather Stations






























Interactive Weather Map New forecast layout! Learn more

10-Day Weather Forecast

Advertisements
Track Severe Weather on mobile